Terminal Aerodrome Forecast
Issued by NWS

Home | Current Version | Previous Version | Text Only | Print | Product List | Glossary On
Versions: 1 2 3 4 5 6 7 8 9 10 11 12 13 14 15 16 17 18 19 20 21 22 23 24 25 26
533
FTUS43 KDLH 051150
TAFBRD
TAF
KBRD 051150Z 0512/0612 00000KT 1/2SM FZFG OVC003
      TEMPO 0512/0513 1/4SM FZFG
     FM051300 15004KT 1 1/2SM BR SCT003 OVC006
     FM051500 13007KT P6SM BKN025
     FM051800 13010KT P6SM OVC040
     FM052000 15009KT 5SM BR VCSH OVC015
     FM061000 24011KT P6SM BKN020=

USA.gov is the U.S. government's official web portal to all federal, state and local government web resources and services.